CheckWX is a tool to help pilots better visualize weather data.  It is not intended as a substitute for an official pre-flight weather briefing.

09:35:18 UTC

KSBY METAR
Salisbury Ocean City Wicomico Regional Airport
Salisbury, Maryland, USA
Current

41 mins ago

KSBY 150854Z AUTO 00000KT 10SM CLR 19/17 A3009 RMK AO2 SLP193 T01940172 53008
Observed
Jul-15 @ 08:54 UTC
Visibility
10 SM
Flight Rules
VFR
Cloud Levels
  • Clear skies
Temperature
19°C / 66°F
Dewpoint
17°C / 63°F
Humidity
88%
Altimeter
30.09" Hg
Pressure
1018.92 hPa
Previous

2 hours ago

KSBY 150754Z AUTO 00000KT 10SM CLR 19/17 A3008 RMK AO2 SLP187 T01940172
Observed
Jul-15 @ 07:54 UTC
Visibility
10 SM
Flight Rules
VFR
Cloud Levels
  • Clear skies
Temperature
19°C / 66°F
Dewpoint
17°C / 63°F
Humidity
88%
Altimeter
30.08" Hg
Pressure
1018.62 hPa
Previous

3 hours ago

KSBY 150654Z AUTO 00000KT 10SM CLR 20/17 A3007 RMK AO2 SLP184 T02000172
Observed
Jul-15 @ 06:54 UTC
Visibility
10 SM
Flight Rules
VFR
Cloud Levels
  • Clear skies
Temperature
20°C / 68°F
Dewpoint
17°C / 63°F
Humidity
83%
Altimeter
30.07" Hg
Pressure
1018.32 hPa